createdAt,value
2017-03-28T00:01:06.848Z,48.8
2017-03-28T00:02:16.782Z,48.71
2017-03-28T00:03:26.674Z,48.71
2017-03-28T00:04:35.943Z,48.71
2017-03-28T00:05:45.270Z,48.52
2017-03-28T00:06:55.209Z,48.61
2017-03-28T00:08:05.246Z,48.8
2017-03-28T00:09:15.416Z,48.9
2017-03-28T00:10:25.001Z,48.52
2017-03-28T00:11:34.301Z,48.8
2017-03-28T00:12:44.227Z,48.9
2017-03-28T00:13:54.129Z,49.28
2017-03-28T00:15:04.388Z,49.18
2017-03-28T00:16:14.335Z,49.28
2017-03-28T00:17:23.635Z,49.28
2017-03-28T00:18:32.918Z,48.99
2017-03-28T00:19:43.128Z,49.28
2017-03-28T00:20:53.359Z,49.18
2017-03-28T00:22:03.335Z,48.9
2017-03-28T00:23:13.256Z,49.66
2017-03-28T00:24:22.906Z,49.28
2017-03-28T00:25:32.849Z,49.18
2017-03-28T00:26:43.002Z,49.47
2017-03-28T00:27:52.927Z,49.66
2017-03-28T00:29:02.235Z,49.76
2017-03-28T00:30:12.233Z,49.28
2017-03-28T00:31:21.585Z,49.85
2017-03-28T00:32:31.755Z,49.28
2017-03-28T00:33:41.359Z,48.9
2017-03-28T00:34:51.317Z,49.37
2017-03-28T00:36:01.334Z,49.37
2017-03-28T00:37:10.962Z,49.28
2017-03-28T00:38:20.806Z,49.26
2017-03-28T00:39:30.438Z,49.35
2017-03-28T00:40:40.364Z,49.44
2017-03-28T00:41:50.142Z,49.63
2017-03-28T00:43:00.077Z,49.73
2017-03-28T00:44:10.072Z,49.82
2017-03-28T00:45:19.703Z,49.82
2017-03-28T00:46:29.711Z,49.82
2017-03-28T00:47:38.970Z,50.11
2017-03-28T00:48:48.601Z,50.59
2017-03-28T00:49:58.771Z,50.21
2017-03-28T00:51:08.674Z,51.23
2017-03-28T00:52:18.679Z,50.66
2017-03-28T00:53:28.296Z,51.04
2017-03-28T00:54:37.965Z,51.14
2017-03-28T00:55:48.156Z,51.14
2017-03-28T00:56:57.498Z,50.94
2017-03-28T00:58:07.076Z,51.14
2017-03-28T00:59:16.367Z,51.14
2017-03-28T01:00:26.362Z,51.14
2017-03-28T01:01:35.883Z,51.42
2017-03-28T01:02:45.473Z,51.42
2017-03-28T01:03:55.034Z,51.61
2017-03-28T01:05:04.661Z,51.89
2017-03-28T01:06:14.255Z,51.8
2017-03-28T01:07:24.195Z,51.89
2017-03-28T01:08:33.465Z,51.89
2017-03-28T01:09:43.053Z,51.99
2017-03-28T01:10:52.633Z,52.18
2017-03-28T01:12:02.241Z,52.09
2017-03-28T01:13:12.421Z,52.09
2017-03-28T01:14:22.320Z,53.04
2017-03-28T01:15:32.237Z,52.75
2017-03-28T01:16:42.163Z,52.72
2017-03-28T01:17:52.134Z,52.63
2017-03-28T01:19:02.024Z,52.66
2017-03-28T01:20:11.610Z,52.92
2017-03-28T01:21:21.680Z,52.72
2017-03-28T01:22:31.306Z,52.63
2017-03-28T01:23:41.278Z,53.11
2017-03-28T01:24:51.461Z,53.11
2017-03-28T01:26:01.050Z,52.92
2017-03-28T01:27:10.962Z,53.01
2017-03-28T01:28:20.953Z,52.82
2017-03-28T01:29:30.851Z,53.11
2017-03-28T01:30:41.201Z,53.67
2017-03-28T01:31:50.831Z,53.49
2017-03-28T01:33:00.825Z,53.96
2017-03-28T01:34:10.408Z,54.06
2017-03-28T01:35:20.448Z,53.96
2017-03-28T01:36:30.603Z,53.7
2017-03-28T01:37:40.548Z,53.04
2017-03-28T01:38:50.486Z,53.89
2017-03-28T01:40:00.143Z,53.13
2017-03-28T01:41:09.732Z,53.13
2017-03-28T01:42:19.589Z,53.04
2017-03-28T01:43:29.592Z,53.13
2017-03-28T01:44:39.556Z,52.94
2017-03-28T01:45:48.823Z,52.94
2017-03-28T01:46:58.401Z,53.23
2017-03-28T01:48:08.241Z,53.7
2017-03-28T01:49:18.325Z,53.42
2017-03-28T01:50:28.260Z,53.23
2017-03-28T01:51:37.935Z,53.23
2017-03-28T01:52:47.856Z,53.04
2017-03-28T01:53:58.634Z,53.23
2017-03-28T01:55:08.549Z,53.23
2017-03-28T01:56:18.483Z,52.94
2017-03-28T01:57:28.383Z,52.94
2017-03-28T01:58:38.011Z,52.94
2017-03-28T01:59:48.168Z,52.94
2017-03-28T02:00:58.173Z,52.94
2017-03-28T02:02:08.214Z,53.04
2017-03-28T02:03:18.122Z,53.23
2017-03-28T02:04:28.040Z,53.01
2017-03-28T02:05:37.886Z,53.2
2017-03-28T02:06:47.800Z,53.11
2017-03-28T02:07:57.399Z,53.67
2017-03-28T02:09:07.325Z,53.58
2017-03-28T02:10:17.257Z,53.87
2017-03-28T02:11:27.168Z,53.87
2017-03-28T02:12:37.111Z,54.06
2017-03-28T02:13:46.721Z,53.87
2017-03-28T02:14:56.467Z,53.67
2017-03-28T02:16:06.046Z,53.67
2017-03-28T02:17:15.572Z,53.67
2017-03-28T02:18:25.316Z,54.25
2017-03-28T02:19:35.253Z,54.15
2017-03-28T02:20:44.878Z,54.15
2017-03-28T02:21:54.776Z,54.06
2017-03-28T02:23:04.991Z,54.06
2017-03-28T02:24:14.976Z,54.35
2017-03-28T02:25:24.586Z,53.96
2017-03-28T02:26:34.470Z,54.44
2017-03-28T02:27:44.096Z,54.53
2017-03-28T02:28:54.316Z,54.35
2017-03-28T02:30:04.254Z,54.44
2017-03-28T02:31:14.229Z,54.72
2017-03-28T02:32:24.184Z,54.63
2017-03-28T02:33:33.973Z,54.63
2017-03-28T02:34:43.867Z,54.82
2017-03-28T02:35:53.132Z,54.63
2017-03-28T02:37:02.761Z,54.72
2017-03-28T02:38:12.371Z,54.69
2017-03-28T02:39:21.954Z,54.5
2017-03-28T02:40:32.153Z,54.22
2017-03-28T02:41:41.133Z,54.41
2017-03-28T02:42:51.045Z,54.5
2017-03-28T02:44:01.017Z,54.98
2017-03-28T02:45:11.003Z,54.6
2017-03-28T02:46:21.026Z,54.69
2017-03-28T02:47:30.929Z,54.98
2017-03-28T02:48:40.391Z,55.08
2017-03-28T02:49:49.984Z,54.98
2017-03-28T02:50:59.894Z,55.27
2017-03-28T02:52:09.787Z,55.17
2017-03-28T02:53:19.725Z,55.65
2017-03-28T02:54:29.718Z,55.74
2017-03-28T02:55:39.648Z,56.03
2017-03-28T02:56:49.263Z,55.83
2017-03-28T02:57:59.471Z,56.03
2017-03-28T02:59:08.735Z,55.74
2017-03-28T03:00:18.022Z,55.68
2017-03-28T03:01:27.925Z,55.49
2017-03-28T03:02:37.201Z,55.49
2017-03-28T03:03:47.495Z,55.96
2017-03-28T03:04:56.765Z,55.2
2017-03-28T03:06:06.720Z,55.29
2017-03-28T03:07:16.440Z,55.01
2017-03-28T03:08:26.031Z,54.91
2017-03-28T03:09:36.313Z,54.63
2017-03-28T03:10:46.209Z,54.82
2017-03-28T03:11:56.202Z,55.01
2017-03-28T03:13:05.840Z,55.2
2017-03-28T03:14:15.521Z,54.91
2017-03-28T03:15:25.499Z,55.2
2017-03-28T03:16:35.487Z,55.39
2017-03-28T03:17:45.609Z,55.2
2017-03-28T03:18:54.922Z,55.2
2017-03-28T03:20:04.518Z,55.01
2017-03-28T03:21:14.744Z,55.29
2017-03-28T03:22:24.651Z,55.29
2017-03-28T03:23:34.643Z,55.49
2017-03-28T03:24:44.247Z,55.1
2017-03-28T03:25:54.146Z,55.77
2017-03-28T03:27:04.049Z,55.1
2017-03-28T03:28:13.956Z,55.77
2017-03-28T03:29:24.097Z,55.77
2017-03-28T03:30:34.015Z,55.46
2017-03-28T03:31:43.609Z,55.36
2017-03-28T03:32:53.796Z,55.1
2017-03-28T03:34:03.717Z,55.17
2017-03-28T03:35:13.321Z,55.46
2017-03-28T03:36:23.246Z,54.91
2017-03-28T03:37:33.302Z,54.98
2017-03-28T03:38:43.131Z,54.98
2017-03-28T03:39:53.066Z,55.17
2017-03-28T03:41:02.996Z,55.39
2017-03-28T03:42:12.663Z,55.01
2017-03-28T03:43:22.377Z,54.98
2017-03-28T03:44:32.212Z,55.17
2017-03-28T03:45:41.824Z,54.98
2017-03-28T03:46:51.796Z,55.17
2017-03-28T03:48:01.729Z,55.65
2017-03-28T03:49:11.738Z,55.49
2017-03-28T03:50:21.632Z,54.91
2017-03-28T03:51:31.354Z,54.98
2017-03-28T03:52:41.353Z,54.69
2017-03-28T03:53:50.947Z,54.72
2017-03-28T03:55:00.932Z,54.72
2017-03-28T03:56:10.800Z,54.63
2017-03-28T03:57:20.381Z,54.82
2017-03-28T03:58:29.702Z,54.91
2017-03-28T03:59:39.576Z,54.63
2017-03-28T04:00:49.470Z,54.82
2017-03-28T04:01:59.312Z,55.01
2017-03-28T04:03:08.896Z,54.53
2017-03-28T04:04:17.837Z,54.82
2017-03-28T04:05:27.742Z,54.82
2017-03-28T04:06:37.029Z,54.72
2017-03-28T04:07:47.273Z,54.63
2017-03-28T04:08:57.205Z,54.72
2017-03-28T04:10:06.825Z,54.44
2017-03-28T04:11:16.542Z,54.82
2017-03-28T04:12:26.450Z,54.82
2017-03-28T04:13:36.309Z,54.82
2017-03-28T04:14:46.302Z,54.82
2017-03-28T04:15:55.604Z,54.25
2017-03-28T04:17:05.512Z,54.53
2017-03-28T04:18:15.106Z,54.82
2017-03-28T04:19:24.989Z,54.69
2017-03-28T04:20:34.616Z,54.79
2017-03-28T04:21:44.205Z,55.1
2017-03-28T04:22:53.850Z,54.72
2017-03-28T04:24:03.464Z,55.1
2017-03-28T04:25:13.330Z,54.91
2017-03-28T04:26:22.933Z,55.01
2017-03-28T04:27:32.909Z,54.98
2017-03-28T04:28:42.871Z,54.72
2017-03-28T04:29:52.869Z,54.89
2017-03-28T04:31:03.058Z,54.79
2017-03-28T04:32:12.647Z,54.79
2017-03-28T04:33:22.276Z,54.89
2017-03-28T04:34:32.186Z,54.82
2017-03-28T04:35:41.792Z,54.69
2017-03-28T04:36:51.635Z,54.79
2017-03-28T04:38:01.544Z,54.79
2017-03-28T04:39:11.555Z,55.36
2017-03-28T04:40:21.506Z,54.89
2017-03-28T04:41:31.409Z,54.89
2017-03-28T04:42:41.712Z,54.13
2017-03-28T04:43:51.618Z,54.5
2017-03-28T04:45:01.286Z,54.5
2017-03-28T04:46:10.907Z,54.89
2017-03-28T04:47:20.803Z,54.69
2017-03-28T04:48:31.032Z,54.5
2017-03-28T04:49:40.947Z,54.69
2017-03-28T04:50:50.611Z,54.79
2017-03-28T04:52:00.271Z,55.17
2017-03-28T04:53:09.723Z,54.98
2017-03-28T04:54:19.696Z,55.08
2017-03-28T04:55:29.056Z,55.08
2017-03-28T04:56:38.350Z,55.08
2017-03-28T04:57:48.264Z,55.27
2017-03-28T04:58:58.229Z,55.08
2017-03-28T05:00:08.441Z,54.89
2017-03-28T05:01:18.385Z,54.98
2017-03-28T05:02:27.980Z,54.89
2017-03-28T05:03:38.030Z,54.89
2017-03-28T05:04:48.088Z,54.89
2017-03-28T05:05:58.241Z,55.27
2017-03-28T05:07:08.432Z,55.27
2017-03-28T05:08:18.031Z,55.08
2017-03-28T05:09:27.644Z,55.46
2017-03-28T05:10:37.611Z,55.46
2017-03-28T05:11:47.812Z,55.27
2017-03-28T05:12:57.774Z,55.08
2017-03-28T05:14:07.749Z,55.27
2017-03-28T05:15:17.670Z,55.08
2017-03-28T05:16:27.259Z,55.46
2017-03-28T05:17:37.419Z,55.74
2017-03-28T05:18:47.325Z,55.65
2017-03-28T05:19:56.924Z,55.74
2017-03-28T05:21:06.261Z,55.93
2017-03-28T05:22:16.392Z,55.93
2017-03-28T05:23:26.293Z,56.22
2017-03-28T05:24:36.424Z,55.83
2017-03-28T05:25:46.252Z,55.83
2017-03-28T05:26:55.889Z,55.83
2017-03-28T05:28:05.484Z,55.74
2017-03-28T05:29:15.688Z,56.22
2017-03-28T05:30:25.680Z,55.83
2017-03-28T05:31:35.270Z,55.93
2017-03-28T05:32:45.210Z,56.12
2017-03-28T05:33:55.166Z,56.31
2017-03-28T05:35:05.354Z,56.22
2017-03-28T05:36:15.299Z,56.31
2017-03-28T05:37:25.239Z,56.51
2017-03-28T05:38:35.153Z,56.31
2017-03-28T05:39:44.749Z,56.51
2017-03-28T05:40:54.662Z,56.31
2017-03-28T05:42:04.363Z,56.41
2017-03-28T05:43:14.284Z,56.12
2017-03-28T05:44:24.316Z,56.22
2017-03-28T05:45:34.248Z,56.12
2017-03-28T05:46:44.426Z,56.31
2017-03-28T05:47:54.368Z,56.31
2017-03-28T05:49:03.971Z,56.22
2017-03-28T05:50:13.619Z,56.41
2017-03-28T05:51:22.885Z,56.22
2017-03-28T05:52:33.068Z,55.83
2017-03-28T05:53:42.961Z,55.83
2017-03-28T05:54:52.550Z,55.83
2017-03-28T05:56:02.186Z,56.12
2017-03-28T05:57:12.114Z,55.65
2017-03-28T05:58:22.343Z,55.77
2017-03-28T05:59:32.025Z,55.77
2017-03-28T06:00:41.627Z,55.39
2017-03-28T06:01:51.574Z,55.58
2017-03-28T06:03:01.243Z,55.68
2017-03-28T06:04:11.722Z,55.29
2017-03-28T06:05:21.307Z,55.29
2017-03-28T06:06:31.223Z,54.91
2017-03-28T06:07:40.861Z,55.01
2017-03-28T06:08:50.806Z,54.72
2017-03-28T06:10:01.005Z,54.82
2017-03-28T06:11:10.914Z,55.01
2017-03-28T06:12:20.925Z,54.91
2017-03-28T06:13:30.851Z,54.44
2017-03-28T06:14:40.793Z,54.56
2017-03-28T06:15:51.089Z,54.66
2017-03-28T06:17:00.351Z,54.56
2017-03-28T06:18:10.312Z,54.27
2017-03-28T06:19:20.313Z,54.37
2017-03-28T06:20:30.463Z,54.08
2017-03-28T06:21:40.627Z,53.99
2017-03-28T06:22:49.889Z,54.08
2017-03-28T06:23:59.486Z,53.99
2017-03-28T06:25:09.396Z,53.7
2017-03-28T06:26:19.363Z,53.92
2017-03-28T06:27:29.578Z,53.35
2017-03-28T06:28:39.488Z,53.06
2017-03-28T06:29:49.109Z,53.06
2017-03-28T06:30:59.089Z,53.06
2017-03-28T06:32:09.126Z,52.87
2017-03-28T06:33:18.995Z,52.68
2017-03-28T06:34:28.262Z,52.4
2017-03-28T06:35:38.321Z,52.2
2017-03-28T06:36:48.268Z,52.2
2017-03-28T06:37:57.899Z,52.3
2017-03-28T06:39:07.102Z,52.3
2017-03-28T06:40:16.769Z,52.2
2017-03-28T06:41:26.786Z,52.3
2017-03-28T06:42:36.681Z,51.92
2017-03-28T06:43:46.272Z,52.11
2017-03-28T06:44:56.453Z,51.64
2017-03-28T06:46:06.049Z,52.01
2017-03-28T06:47:15.651Z,51.73
2017-03-28T06:48:25.562Z,51.16
2017-03-28T06:49:34.884Z,50.97
2017-03-28T06:50:45.109Z,51.16
2017-03-28T06:51:54.767Z,50.97
2017-03-28T06:53:04.688Z,51.06
2017-03-28T06:54:14.282Z,50.87
2017-03-28T06:55:24.204Z,50.49
2017-03-28T06:56:33.717Z,50.87
2017-03-28T06:57:42.671Z,51.16
2017-03-28T06:58:52.321Z,50.97
2017-03-28T07:00:01.931Z,50.61
2017-03-28T07:01:11.550Z,50.59
2017-03-28T07:02:21.421Z,50.61
2017-03-28T07:03:31.028Z,50.42
2017-03-28T07:04:40.947Z,50.23
2017-03-28T07:05:50.560Z,49.85
2017-03-28T07:07:00.510Z,50.13
2017-03-28T07:08:10.674Z,50.04
2017-03-28T07:09:20.679Z,50.23
2017-03-28T07:10:30.589Z,49.56
2017-03-28T07:11:40.173Z,50.04
2017-03-28T07:12:49.871Z,49.76
2017-03-28T07:13:59.735Z,49.95
2017-03-28T07:15:09.686Z,49.66
2017-03-28T07:16:19.583Z,49.76
2017-03-28T07:18:00.675Z,49.85
2017-03-28T07:19:10.880Z,49.68
2017-03-28T07:20:20.867Z,49.59
2017-03-28T07:21:30.836Z,49.11
2017-03-28T07:22:40.883Z,49.4
2017-03-28T07:23:50.821Z,49.02
2017-03-28T07:25:00.995Z,49.49
2017-03-28T07:26:10.900Z,49.11
2017-03-28T07:27:20.498Z,48.83
2017-03-28T07:28:30.402Z,48.92
2017-03-28T07:29:40.311Z,48.63
2017-03-28T07:30:50.559Z,48.66
2017-03-28T07:32:00.505Z,48.75
2017-03-28T07:33:10.488Z,48.37
2017-03-28T07:34:19.776Z,48.57
2017-03-28T07:35:29.701Z,48.28
2017-03-28T07:36:39.869Z,47.89
2017-03-28T07:37:49.248Z,47.89
2017-03-28T07:38:59.156Z,47.34
2017-03-28T07:40:09.190Z,47.54
2017-03-28T07:41:19.099Z,47.34
2017-03-28T07:42:29.337Z,46.87
2017-03-28T07:43:39.255Z,46.68
2017-03-28T07:44:48.879Z,46.48
2017-03-28T07:45:58.835Z,46.3
2017-03-28T07:47:08.889Z,46.32
2017-03-28T07:48:19.063Z,46.42
2017-03-28T07:49:29.023Z,45.84
2017-03-28T07:50:39.109Z,46.13
2017-03-28T07:51:49.057Z,45.65
2017-03-28T07:52:58.702Z,45.01
2017-03-28T07:54:08.528Z,44.91
2017-03-28T07:55:18.181Z,45.2
2017-03-28T07:56:28.118Z,44.15
2017-03-28T07:57:37.690Z,43.59
2017-03-28T07:58:46.961Z,43.4
2017-03-28T07:59:57.245Z,42.83
2017-03-28T08:01:07.204Z,42.56
2017-03-28T08:02:17.114Z,41.34
2017-03-28T08:03:27.053Z,40.95
2017-03-28T08:04:37.549Z,40.78
2017-03-28T08:05:48.045Z,40.23
2017-03-28T08:06:58.270Z,39.2
2017-03-28T08:08:08.166Z,35.71
2017-03-28T08:09:19.783Z,33.34
2017-03-28T08:10:30.443Z,31.85
2017-03-28T08:11:40.565Z,29.87
2017-03-28T08:12:51.345Z,29.03
2017-03-28T08:14:01.913Z,26.93
2017-03-28T08:15:12.205Z,26.2
2017-03-28T08:16:22.607Z,25.07
2017-03-28T08:17:33.185Z,23.24
2017-03-28T08:18:43.439Z,21.81
2017-03-28T08:19:53.992Z,20.76
2017-03-28T08:21:04.495Z,20
2017-03-28T08:22:15.030Z,19.24
2017-03-28T08:23:25.527Z,18.76
2017-03-28T08:24:35.557Z,17.9
2017-03-28T08:25:45.704Z,17.13
2017-03-28T08:26:56.156Z,16.16
2017-03-28T08:28:06.289Z,15.09
2017-03-28T08:29:16.827Z,14.51
2017-03-28T08:30:27.391Z,14.91
2017-03-28T08:31:38.043Z,14.62
2017-03-28T08:32:48.563Z,14.62
2017-03-28T08:33:59.113Z,14.62
2017-03-28T08:35:09.886Z,13.85
2017-03-28T08:36:20.575Z,13.07
2017-03-28T08:37:31.097Z,13.07
2017-03-28T08:38:41.291Z,12.78
2017-03-28T08:39:51.803Z,12.59
2017-03-28T08:41:02.291Z,12.21
2017-03-28T08:42:12.834Z,12.01
2017-03-28T08:43:23.335Z,12.11
2017-03-28T08:44:33.893Z,11.72
2017-03-28T08:45:44.163Z,11.52
2017-03-28T08:46:54.694Z,11.33
2017-03-28T08:48:05.208Z,11.52
2017-03-28T08:49:15.728Z,10.74
2017-03-28T08:50:27.219Z,11.22
2017-03-28T08:51:38.407Z,10.84
2017-03-28T08:52:48.912Z,10.25
2017-03-28T08:54:00.469Z,10.84
2017-03-28T08:55:10.670Z,10.84
2017-03-28T08:56:21.250Z,10.16
2017-03-28T08:57:31.466Z,10.16
2017-03-28T08:58:41.861Z,9.68
2017-03-28T08:59:52.422Z,9.88
2017-03-28T09:01:03.020Z,9.49
2017-03-28T09:02:12.916Z,9
2017-03-28T09:03:23.437Z,9.39
2017-03-28T09:04:34.218Z,9
2017-03-28T09:05:44.791Z,8.81
2017-03-28T09:06:56.275Z,8.52
2017-03-28T09:08:06.475Z,8.52
2017-03-28T09:09:16.317Z,7.74
2017-03-28T09:10:26.793Z,7.84
2017-03-28T09:11:37.397Z,7.64
2017-03-28T09:12:47.669Z,7.74
2017-03-28T09:13:58.264Z,7.83
2017-03-28T09:15:08.452Z,7.45
2017-03-28T09:16:20.275Z,7.54
2017-03-28T09:17:30.598Z,7.74
2017-03-28T09:18:41.113Z,7.26
2017-03-28T09:19:51.629Z,7.35
2017-03-28T09:21:02.053Z,7.26
2017-03-28T09:22:12.176Z,6.67
2017-03-28T09:23:22.460Z,6.09
2017-03-28T09:24:32.682Z,6.09
2017-03-28T09:25:43.844Z,6.09
2017-03-28T09:26:54.599Z,5.79
2017-03-28T09:28:05.721Z,5.99
2017-03-28T09:29:16.023Z,6.38
2017-03-28T09:30:26.625Z,5.1
2017-03-28T09:31:36.854Z,5.1
2017-03-28T09:32:46.675Z,5.39
2017-03-28T09:33:56.960Z,5.39
2017-03-28T09:35:08.242Z,5.59
2017-03-28T09:36:18.758Z,5.29
2017-03-28T09:37:28.948Z,5.59
2017-03-28T09:38:39.500Z,5.69
2017-03-28T09:39:49.949Z,3.83
2017-03-28T09:41:00.148Z,3.33
2017-03-28T09:42:10.799Z,3.83
2017-03-28T09:43:21.345Z,4.61
2017-03-28T09:44:31.884Z,4.51
2017-03-28T09:45:42.864Z,4.61
2017-03-28T09:46:53.382Z,4.42
2017-03-28T09:48:03.606Z,4.32
2017-03-28T09:49:14.238Z,4.52
2017-03-28T09:50:24.770Z,4.32
2017-03-28T09:51:35.323Z,4.52
2017-03-28T09:52:46.869Z,4.82
2017-03-28T09:53:57.098Z,4.52
2017-03-28T09:55:07.690Z,4.22
2017-03-28T09:56:18.214Z,4.52
2017-03-28T09:57:28.479Z,4.22
2017-03-28T09:58:39.055Z,5.2
2017-03-28T09:59:49.597Z,5.1
2017-03-28T10:00:59.882Z,5.3
2017-03-28T10:02:10.082Z,5.1
2017-03-28T10:03:20.759Z,4.71
2017-03-28T10:04:30.989Z,4.91
2017-03-28T10:05:41.539Z,5.1
2017-03-28T10:06:51.452Z,5.2
2017-03-28T10:08:01.991Z,5.49
2017-03-28T10:09:12.795Z,5.4
2017-03-28T10:10:23.333Z,5.49
2017-03-28T10:11:33.211Z,5.19
2017-03-28T10:12:43.699Z,5.58
2017-03-28T10:13:53.942Z,5.19
2017-03-28T10:15:04.461Z,5.39
2017-03-28T10:16:15.020Z,5.68
2017-03-28T10:17:25.698Z,5.49
2017-03-28T10:18:35.907Z,5.29
2017-03-28T10:19:46.466Z,5.58
2017-03-28T10:20:57.251Z,5.77
2017-03-28T10:22:07.818Z,6.16
2017-03-28T10:23:17.763Z,5.29
2017-03-28T10:24:28.294Z,5.09
2017-03-28T10:25:38.854Z,4.69
2017-03-28T10:26:49.357Z,5.08
2017-03-28T10:27:59.686Z,5.96
2017-03-28T10:29:10.225Z,6.56
2017-03-28T10:30:20.514Z,6.55
2017-03-28T10:31:31.069Z,7.04
2017-03-28T10:32:41.855Z,7.14
2017-03-28T10:33:52.089Z,7.14
2017-03-28T10:35:02.364Z,6.95
2017-03-28T10:36:12.913Z,7.23
2017-03-28T10:37:23.146Z,6.65
2017-03-28T10:38:33.928Z,6.16
2017-03-28T10:39:45.449Z,6.65
2017-03-28T10:40:56.132Z,6.55
2017-03-28T10:42:06.676Z,6.35
2017-03-28T10:43:17.199Z,5.87
2017-03-28T10:44:28.033Z,5.57
2017-03-28T10:45:38.176Z,5.28
2017-03-28T10:46:48.700Z,5.08
2017-03-28T10:47:59.230Z,5.18
2017-03-28T10:49:09.646Z,4.69
2017-03-28T10:50:20.439Z,4.98
2017-03-28T10:51:31.211Z,5.08
2017-03-28T10:52:41.762Z,5.18
2017-03-28T10:53:52.093Z,5.08
2017-03-28T10:55:02.320Z,4.79
2017-03-28T10:56:13.160Z,4.49
2017-03-28T10:57:23.603Z,4.69
2017-03-28T10:58:33.837Z,5.18
2017-03-28T10:59:44.122Z,5.18
2017-03-28T11:00:54.455Z,4.49
2017-03-28T11:02:04.950Z,4.39
2017-03-28T11:03:15.237Z,4.39
2017-03-28T11:04:57.601Z,4.49
2017-03-28T11:06:07.794Z,3.42
2017-03-28T11:07:18.580Z,3.91
2017-03-28T11:08:29.143Z,3.91
2017-03-28T11:09:39.275Z,3.91
2017-03-28T11:10:49.857Z,3.61
2017-03-28T11:12:00.477Z,3.81
2017-03-28T11:13:10.940Z,3.61
2017-03-28T11:14:21.153Z,3.32
2017-03-28T11:15:31.687Z,3.52
2017-03-28T11:16:42.977Z,3.81
2017-03-28T11:17:53.502Z,3.71
2017-03-28T11:19:04.271Z,3.91
2017-03-28T11:20:15.861Z,3.91
2017-03-28T11:21:25.751Z,3.61
2017-03-28T11:22:36.280Z,4
2017-03-28T11:23:46.831Z,4.1
2017-03-28T11:24:57.346Z,4.3
2017-03-28T11:26:07.780Z,3.61
2017-03-28T11:27:19.313Z,3.42
2017-03-28T11:28:29.559Z,3.03
2017-03-28T11:29:40.090Z,3.03
2017-03-28T11:30:50.920Z,2.83
2017-03-28T11:32:02.440Z,2.54
2017-03-28T11:33:13.617Z,2.54
2017-03-28T11:34:23.191Z,3.13
2017-03-28T11:35:33.722Z,3.42
2017-03-28T11:36:44.254Z,2.83
2017-03-28T11:37:54.786Z,2.83
2017-03-28T11:39:05.348Z,2.54
2017-03-28T11:40:16.030Z,3.22
2017-03-28T11:41:26.638Z,2.54
2017-03-28T11:42:38.104Z,3.03
2017-03-28T11:43:48.383Z,3.13
2017-03-28T11:44:58.965Z,3.22
2017-03-28T11:46:09.263Z,2.93
2017-03-28T11:47:19.564Z,3.32
2017-03-28T11:48:30.100Z,3.71
2017-03-28T11:49:40.702Z,2.83
2017-03-28T11:50:50.930Z,3.32
2017-03-28T11:52:00.958Z,2.64
2017-03-28T11:53:11.558Z,2.93
2017-03-28T11:54:22.107Z,2.54
2017-03-28T11:55:32.342Z,3.03
2017-03-28T11:56:42.924Z,3.13
2017-03-28T11:57:53.486Z,3.42
2017-03-28T11:59:04.029Z,3.52
2017-03-28T12:00:14.912Z,3.13
2017-03-28T12:01:25.458Z,3.52
2017-03-28T12:02:35.694Z,3.81
2017-03-28T12:03:46.261Z,3.91
2017-03-28T12:04:56.787Z,3.42
2017-03-28T12:06:07.254Z,3.42
2017-03-28T12:07:17.465Z,3.52
2017-03-28T12:08:28.983Z,3.32
2017-03-28T12:09:39.605Z,3.13
2017-03-28T12:10:50.146Z,3.22
2017-03-28T12:12:00.599Z,2.93
2017-03-28T12:13:10.813Z,3.32
2017-03-28T12:14:21.312Z,3.42
2017-03-28T12:15:31.949Z,3.42
2017-03-28T12:16:43.485Z,3.42
2017-03-28T12:17:54.006Z,3.32
2017-03-28T12:19:04.626Z,3.42
2017-03-28T12:20:14.851Z,3.42
2017-03-28T12:21:26.380Z,3.81
2017-03-28T12:22:36.662Z,3.52
2017-03-28T12:23:47.165Z,3.71
2017-03-28T12:24:57.814Z,3.61
2017-03-28T12:26:08.523Z,3.81
2017-03-28T12:27:18.862Z,3.61
2017-03-28T12:28:29.488Z,3.32
2017-03-28T12:29:40.308Z,3.81
2017-03-28T12:30:50.877Z,3.71
2017-03-28T12:32:01.434Z,3.81
2017-03-28T12:33:12.012Z,3.61
2017-03-28T12:34:22.299Z,3.81
2017-03-28T12:35:33.183Z,3.61
2017-03-28T12:36:43.486Z,3.81
2017-03-28T12:37:53.814Z,4.2
2017-03-28T12:39:04.475Z,3.32
2017-03-28T12:40:15.030Z,3.71
2017-03-28T12:41:25.514Z,4
2017-03-28T12:42:35.747Z,4.29
2017-03-28T12:43:45.986Z,4.39
2017-03-28T12:44:56.189Z,4.49
2017-03-28T12:46:06.738Z,4.29
2017-03-28T12:47:19.086Z,3.9
2017-03-28T12:48:29.628Z,4.19
2017-03-28T12:49:40.198Z,4.29
2017-03-28T12:50:51.447Z,4.49
2017-03-28T12:52:02.982Z,4.78
2017-03-28T12:53:13.858Z,4.19
2017-03-28T12:54:24.397Z,4.1
2017-03-28T12:55:35.708Z,4.19
2017-03-28T12:56:46.318Z,4
2017-03-28T12:57:56.896Z,4.48
2017-03-28T12:59:07.885Z,4.38
2017-03-28T13:00:18.462Z,4.58
2017-03-28T13:01:28.706Z,4.09
2017-03-28T13:02:39.447Z,4.38
2017-03-28T13:03:50.072Z,4.58
2017-03-28T13:05:00.839Z,4.58
2017-03-28T13:06:11.094Z,5.26
2017-03-28T13:07:21.851Z,4.97
2017-03-28T13:08:32.666Z,4.86
2017-03-28T13:09:43.230Z,5.16
2017-03-28T13:10:55.063Z,5.16
2017-03-28T13:12:04.948Z,5.16
2017-03-28T13:13:15.179Z,5.35
2017-03-28T13:14:25.739Z,5.44
2017-03-28T13:15:36.085Z,5.64
2017-03-28T13:16:46.877Z,5.64
2017-03-28T13:17:57.419Z,5.64
2017-03-28T13:19:07.258Z,6.41
2017-03-28T13:20:17.785Z,7.19
2017-03-28T13:21:28.031Z,7.09
2017-03-28T13:22:38.816Z,7.58
2017-03-28T13:23:49.378Z,8.26
2017-03-28T13:24:59.925Z,7.97
2017-03-28T13:26:10.571Z,8.45
2017-03-28T13:27:21.106Z,8.84
2017-03-28T13:28:31.607Z,9.03
2017-03-28T13:29:42.154Z,9.03
2017-03-28T13:30:52.339Z,9.22
2017-03-28T13:32:02.561Z,9.51
2017-03-28T13:33:12.723Z,9.31
2017-03-28T13:34:23.616Z,9.6
2017-03-28T13:35:35.151Z,9.7
2017-03-28T13:36:45.375Z,9.79
2017-03-28T13:37:55.578Z,9.79
2017-03-28T13:39:06.233Z,10.28
2017-03-28T13:40:17.042Z,10.37
2017-03-28T13:41:27.594Z,10.27
2017-03-28T13:42:38.261Z,10.47
2017-03-28T13:43:49.068Z,10.37
2017-03-28T13:44:59.819Z,10.47
2017-03-28T13:46:09.955Z,10.85
2017-03-28T13:47:20.648Z,10.75
2017-03-28T13:48:30.600Z,10.95
2017-03-28T13:49:41.319Z,10.75
2017-03-28T13:50:51.455Z,10.66
2017-03-28T13:52:02.251Z,10.75
2017-03-28T13:53:12.776Z,10.66
2017-03-28T13:54:23.317Z,11.04
2017-03-28T13:55:33.203Z,11.53
2017-03-28T13:56:43.785Z,11.53
2017-03-28T13:57:54.255Z,11.33
2017-03-28T13:59:04.925Z,11.62
2017-03-28T14:00:16.140Z,11.81
2017-03-28T14:01:26.034Z,11.91
2017-03-28T14:02:36.587Z,11.81
2017-03-28T14:03:47.171Z,12.3
2017-03-28T14:04:58.054Z,12.49
2017-03-28T14:06:08.698Z,12.59
2017-03-28T14:07:19.260Z,12.4
2017-03-28T14:08:29.927Z,12.78
2017-03-28T14:09:40.782Z,12.59
2017-03-28T14:10:51.421Z,12.4
2017-03-28T14:12:01.717Z,12.4
2017-03-28T14:13:11.927Z,12.59
2017-03-28T14:14:23.136Z,12.49
2017-03-28T14:15:33.976Z,12.49
2017-03-28T14:16:44.654Z,11.91
2017-03-28T14:17:55.124Z,12.39
2017-03-28T14:19:05.325Z,12.68
2017-03-28T14:20:15.870Z,12.98
2017-03-28T14:21:26.076Z,12.87
2017-03-28T14:22:36.007Z,13.26
2017-03-28T14:23:46.541Z,13.16
2017-03-28T14:24:57.129Z,13.26
2017-03-28T14:26:07.353Z,13.65
2017-03-28T14:27:18.132Z,14.03
2017-03-28T14:28:27.938Z,14.23
2017-03-28T14:29:38.603Z,14.51
2017-03-28T14:30:48.512Z,14.23
2017-03-28T14:31:59.077Z,14.41
2017-03-28T14:33:09.858Z,14.61
2017-03-28T14:34:20.382Z,14.51
2017-03-28T14:35:30.931Z,14.41
2017-03-28T14:36:41.127Z,14.8
2017-03-28T14:37:51.649Z,15.19
2017-03-28T14:39:02.455Z,15.28
2017-03-28T14:40:12.392Z,15.48
2017-03-28T14:41:23.033Z,15.58
2017-03-28T14:42:33.547Z,15.38
2017-03-28T14:43:43.446Z,15.58
2017-03-28T14:44:53.987Z,15.48
2017-03-28T14:46:04.368Z,16.06
2017-03-28T14:47:14.898Z,15.96
2017-03-28T14:48:25.113Z,15.96
2017-03-28T14:49:35.358Z,15.86
2017-03-28T14:50:47.144Z,16.06
2017-03-28T14:51:57.371Z,15.77
2017-03-28T14:53:07.907Z,15.77
2017-03-28T14:54:18.536Z,16.16
2017-03-28T14:55:29.074Z,16.34
2017-03-28T14:56:39.873Z,16.34
2017-03-28T14:57:49.794Z,16.24
2017-03-28T14:59:00.295Z,16.44
2017-03-28T15:00:10.885Z,16.72
2017-03-28T15:01:21.504Z,17.02
2017-03-28T15:02:32.412Z,17.4
2017-03-28T15:03:42.962Z,17.69
2017-03-28T15:04:53.162Z,17.6
2017-03-28T15:06:03.759Z,17.6
2017-03-28T15:07:13.964Z,17.79
2017-03-28T15:08:24.741Z,17.5
2017-03-28T15:09:34.952Z,17.5
2017-03-28T15:10:45.468Z,17.78
2017-03-28T15:11:55.713Z,17.68
2017-03-28T15:13:06.373Z,18.36
2017-03-28T15:14:16.827Z,18.36
2017-03-28T15:15:27.020Z,18.17
2017-03-28T15:16:38.206Z,18.55
2017-03-28T15:17:48.998Z,18.46